Time;durP1;ratioP1;P1;durP2;ratioP2;P2;SDS_P1;SDS_P2;PMS_P1;PMS_P2;Temp;Humidity;BMP_temperature;BMP_pressure;BME280_temperature;BME280_humidity;BME280_pressure;Samples;Min_cycle;Max_cycle;Signal;HPM_P1;HPM_P2
2022/06/15 00:01:27;;;;;;;5.32;2.22;;;24.20;65.20;;;;;;5153189;27;20022;-70
2022/06/15 00:03:55;;;;;;;4.68;2.20;;;24.20;65.00;;;;;;5152792;27;20061;-69
2022/06/15 00:06:23;;;;;;;4.35;2.10;;;24.20;64.80;;;;;;5153036;27;20467;-70
2022/06/15 00:08:52;;;;;;;3.63;2.00;;;24.20;65.10;;;;;;5153491;27;20034;-70
2022/06/15 00:11:30;;;;;;;3.38;2.00;;;24.20;65.30;;;;;;5153126;27;20427;-71
2022/06/15 00:13:58;;;;;;;7.10;2.22;;;24.10;65.00;;;;;;5153338;27;20019;-70
2022/06/15 00:16:24;;;;;;;4.60;2.15;;;24.20;64.60;;;;;;5152893;27;20029;-72
2022/06/15 00:18:51;;;;;;;4.72;2.30;;;24.10;65.00;;;;;;5152966;27;20034;-70
2022/06/15 00:21:18;;;;;;;7.38;2.53;;;24.10;65.20;;;;;;5152981;27;20063;-70
2022/06/15 00:23:45;;;;;;;5.47;2.50;;;24.10;65.00;;;;;;5153326;27;20531;-69
2022/06/15 00:26:13;;;;;;;6.25;2.40;;;24.10;64.80;;;;;;5151465;27;20072;-70
2022/06/15 00:28:39;;;;;;;3.75;2.17;;;24.00;65.70;;;;;;5153145;27;20082;-68
2022/06/15 00:31:06;;;;;;;5.63;2.33;;;24.00;65.00;;;;;;5152776;27;20022;-69
2022/06/15 00:33:32;;;;;;;;;;;24.00;64.30;;;;;;5153268;27;20447;-70
2022/06/15 00:36:08;;;;;;;4.18;2.22;;;24.00;63.80;;;;;;5153126;27;20269;-69
2022/06/15 00:38:37;;;;;;;4.13;2.28;;;23.90;63.90;;;;;;5152996;27;20100;-68
2022/06/15 00:41:05;;;;;;;3.85;2.08;;;23.80;64.00;;;;;;5153036;27;20101;-68
2022/06/15 00:43:38;;;;;;;3.25;2.13;;;23.80;63.80;;;;;;5152977;27;20039;-69
2022/06/15 00:46:15;;;;;;;5.32;2.30;;;23.70;63.90;;;;;;5151136;27;20454;-69
2022/06/15 00:48:42;;;;;;;5.57;3.10;;;23.60;64.10;;;;;;5153015;27;20019;-69
2022/06/15 00:51:09;;;;;;;6.95;3.25;;;23.50;64.60;;;;;;5154135;27;20023;-69
2022/06/15 00:53:35;;;;;;;6.60;2.75;;;23.50;64.70;;;;;;5156748;27;20029;-70
2022/06/15 00:56:02;;;;;;;8.10;3.20;;;23.50;65.10;;;;;;5156242;27;20312;-70
2022/06/15 00:58:28;;;;;;;;;;;23.50;65.30;;;;;;5156783;27;20399;-70
2022/06/15 01:00:56;;;;;;;4.15;2.45;;;23.50;65.10;;;;;;5156829;27;19959;-70
2022/06/15 01:03:23;;;;;;;6.97;2.80;;;23.50;64.70;;;;;;5156225;27;20042;-70
2022/06/15 01:06:14;;;;;;;7.85;2.78;;;23.50;64.10;;;;;;5156769;27;20046;-70
2022/06/15 01:09:00;;;;;;;7.30;2.67;;;23.60;64.20;;;;;;5156391;27;20458;-71
2022/06/15 01:12:02;;;;;;;4.95;2.97;;;23.60;64.20;;;;;;5156821;27;20027;-70
2022/06/15 01:14:58;;;;;;;5.07;2.50;;;23.60;64.20;;;;;;5124427;27;20033;-70
2022/06/15 01:17:52;;;;;;;7.13;2.28;;;23.60;63.80;;;;;;5155908;27;20151;-70
2022/06/15 01:20:45;;;;;;;4.20;2.58;;;23.60;63.80;;;;;;5156063;27;20390;-70
2022/06/15 01:23:14;;;;;;;3.85;2.38;;;23.60;63.80;;;;;;5156419;27;20037;-70
2022/06/15 01:25:42;;;;;;;5.20;2.53;;;23.60;63.00;;;;;;5154533;27;20432;-70
2022/06/15 01:28:49;;;;;;;4.10;2.30;;;23.60;63.10;;;;;;5156119;27;20023;-70
2022/06/15 01:31:15;;;;;;;5.78;2.50;;;23.60;63.20;;;;;;5147540;27;20385;-70
2022/06/15 01:34:02;;;;;;;4.82;2.60;;;23.60;63.20;;;;;;5155722;27;20439;-70
2022/06/15 01:36:33;;;;;;;9.40;3.67;;;23.60;63.00;;;;;;5156195;27;20477;-70
2022/06/15 01:39:29;;;;;;;9.18;3.90;;;23.60;63.00;;;;;;5155585;27;20057;-70
2022/06/15 01:42:15;;;;;;;10.25;4.32;;;23.60;62.90;;;;;;5156032;27;20022;-70
2022/06/15 01:45:12;;;;;;;9.73;5.25;;;23.60;62.70;;;;;;5155782;27;20523;-70
2022/06/15 01:47:41;;;;;;;12.23;5.35;;;23.60;62.50;;;;;;5155941;27;20067;-70
2022/06/15 01:50:13;;;;;;;10.85;5.63;;;23.70;62.50;;;;;;5155339;27;20023;-69
2022/06/15 01:53:02;;;;;;;7.85;4.03;;;23.60;62.70;;;;;;5155447;27;20023;-70
2022/06/15 01:55:38;;;;;;;8.52;3.83;;;23.50;63.00;;;;;;5154825;27;20054;-69
2022/06/15 01:58:08;;;;;;;9.88;3.80;;;23.40;63.30;;;;;;5153883;27;20057;-69
2022/06/15 02:00:35;;;;;;;5.95;3.30;;;23.40;63.40;;;;;;5155679;27;20027;-70
2022/06/15 02:03:12;;;;;;;7.25;3.28;;;23.40;63.60;;;;;;5154960;27;20070;-70
2022/06/15 02:06:09;;;;;;;5.75;3.10;;;23.30;63.90;;;;;;5155420;27;20107;-70
2022/06/15 02:09:01;;;;;;;4.85;2.95;;;23.20;64.40;;;;;;5154973;27;20022;-70
2022/06/15 02:11:31;;;;;;;4.47;2.40;;;23.10;64.60;;;;;;5146696;27;20478;-70
2022/06/15 02:14:18;;;;;;;5.35;2.53;;;23.10;65.00;;;;;;5155153;27;20031;-70
2022/06/15 02:16:59;;;;;;;5.65;2.78;;;23.00;65.10;;;;;;5155281;27;20018;-69
2022/06/15 02:19:39;;;;;;;5.60;2.90;;;23.00;65.40;;;;;;5154985;27;20034;-69
2022/06/15 02:22:11;;;;;;;4.30;2.50;;;22.90;66.40;;;;;;5153328;27;20494;-69
2022/06/15 02:24:38;;;;;;;4.85;2.63;;;22.90;66.30;;;;;;5155171;27;20018;-69
2022/06/15 02:27:07;;;;;;;5.65;2.50;;;22.80;66.30;;;;;;5154561;27;20034;-70
2022/06/15 02:29:36;;;;;;;5.82;2.25;;;22.80;66.60;;;;;;5154938;27;20494;-70
2022/06/15 02:32:08;;;;;;;6.15;2.42;;;22.80;67.10;;;;;;5154827;27;20019;-69
2022/06/15 02:34:34;;;;;;;4.45;2.20;;;22.80;67.40;;;;;;5154348;27;20066;-69
2022/06/15 02:37:00;;;;;;;5.15;2.30;;;22.80;67.40;;;;;;5154813;27;20099;-70
2022/06/15 02:39:26;;;;;;;5.32;2.10;;;22.80;67.50;;;;;;5154740;27;20316;-70
2022/06/15 02:42:02;;;;;;;3.60;2.03;;;22.80;67.30;;;;;;5154525;27;20098;-70
2022/06/15 02:44:33;;;;;;;5.10;1.87;;;22.80;67.40;;;;;;5154564;27;20534;-70
2022/06/15 02:46:59;;;;;;;5.95;2.20;;;22.80;67.20;;;;;;5154631;27;20134;-69
2022/06/15 02:49:26;;;;;;;3.75;2.25;;;22.80;65.80;;;;;;5154384;27;20084;-70
2022/06/15 02:51:58;;;;;;;4.88;2.28;;;22.80;65.90;;;;;;5154350;27;20106;-69
2022/06/15 02:54:40;;;;;;;4.82;2.20;;;22.90;65.20;;;;;;5153263;27;20027;-69
2022/06/15 02:57:06;;;;;;;6.05;2.05;;;22.90;65.30;;;;;;5155042;27;20038;-69
2022/06/15 02:59:32;;;;;;;3.67;2.25;;;23.00;65.30;;;;;;5154877;27;20019;-69
2022/06/15 03:01:58;;;;;;;;;;;23.00;65.30;;;;;;5154736;27;20030;-69
2022/06/15 03:04:24;;;;;;;3.03;2.00;;;23.00;65.20;;;;;;5153935;27;19943;-69
2022/06/15 03:06:50;;;;;;;3.33;1.85;;;23.00;64.90;;;;;;5154313;27;20106;-69
2022/06/15 03:09:16;;;;;;;6.25;1.80;;;23.00;64.90;;;;;;5154428;27;20421;-69
2022/06/15 03:11:45;;;;;;;4.38;2.15;;;23.00;64.80;;;;;;5152696;27;20042;-68
2022/06/15 03:14:14;;;;;;;3.70;1.92;;;23.00;64.20;;;;;;5153658;27;20027;-69
2022/06/15 03:16:43;;;;;;;3.17;2.08;;;23.10;63.80;;;;;;5154148;27;20046;-71
2022/06/15 03:19:12;;;;;;;4.85;2.05;;;23.10;63.60;;;;;;5154003;27;20443;-69
2022/06/15 03:21:39;;;;;;;5.78;2.08;;;23.10;63.60;;;;;;5155188;27;20025;-69
2022/06/15 03:24:06;;;;;;;5.00;2.30;;;23.10;64.00;;;;;;5155332;27;20350;-69
2022/06/15 03:26:32;;;;;;;5.03;2.13;;;23.10;64.30;;;;;;5154975;27;20026;-70
2022/06/15 03:28:59;;;;;;;4.78;2.20;;;23.00;64.70;;;;;;5154337;27;20048;-70
2022/06/15 03:31:27;;;;;;;4.03;2.00;;;22.90;65.00;;;;;;5154444;27;20067;-70
2022/06/15 03:33:53;;;;;;;5.38;2.20;;;22.80;65.10;;;;;;5154635;27;20022;-70
2022/06/15 03:36:20;;;;;;;5.22;2.30;;;22.70;65.40;;;;;;5154314;27;20026;-69
2022/06/15 03:38:46;;;;;;;;;;;22.70;65.60;;;;;;5153210;27;20121;-70
2022/06/15 03:41:13;;;;;;;4.25;2.05;;;22.70;65.70;;;;;;5152921;27;19964;-70
2022/06/15 03:43:39;;;;;;;4.25;2.10;;;22.70;65.80;;;;;;5154631;27;20022;-69
2022/06/15 03:46:05;;;;;;;8.23;2.50;;;22.70;65.90;;;;;;5154777;27;20029;-69
2022/06/15 03:48:32;;;;;;;3.78;1.92;;;22.70;66.10;;;;;;5154170;27;20019;-70
2022/06/15 03:50:58;;;;;;;;;;;22.70;66.20;;;;;;5154758;27;20110;-69
2022/06/15 03:53:25;;;;;;;7.50;2.20;;;22.70;66.70;;;;;;5154334;27;19938;-69
2022/06/15 03:55:51;;;;;;;5.72;2.28;;;22.70;66.90;;;;;;5154338;27;20051;-69
2022/06/15 03:58:19;;;;;;;5.97;2.17;;;22.70;67.10;;;;;;5153823;27;20026;-69
2022/06/15 04:00:45;;;;;;;5.10;2.38;;;22.60;67.30;;;;;;5153756;27;20373;-69
2022/06/15 04:03:11;;;;;;;3.58;2.05;;;22.70;67.50;;;;;;5153523;27;20550;-70
2022/06/15 04:05:49;;;;;;;4.22;2.13;;;22.70;67.60;;;;;;5153941;27;20454;-70
2022/06/15 04:08:34;;;;;;;4.40;2.30;;;22.70;67.80;;;;;;5154093;27;20030;-70
2022/06/15 04:11:06;;;;;;;4.47;2.13;;;22.70;67.80;;;;;;5154304;27;20015;-70
2022/06/15 04:13:32;;;;;;;4.78;2.10;;;22.70;67.80;;;;;;5153513;27;20040;-69
2022/06/15 04:15:58;;;;;;;3.28;2.10;;;22.70;67.70;;;;;;5153967;27;20067;-69
2022/06/15 04:18:24;;;;;;;4.80;2.40;;;22.70;67.70;;;;;;5154313;27;20474;-69
2022/06/15 04:20:51;;;;;;;3.83;2.10;;;22.80;67.50;;;;;;5154571;27;20022;-70
2022/06/15 04:23:20;;;;;;;4.85;2.05;;;22.90;67.60;;;;;;5154343;27;20023;-69
2022/06/15 04:25:57;;;;;;;5.93;2.40;;;23.00;67.80;;;;;;5155070;27;20390;-69
2022/06/15 04:28:26;;;;;;;5.18;2.10;;;23.10;67.90;;;;;;5158161;27;20039;-70
2022/06/15 04:30:52;;;;;;;4.57;2.35;;;23.10;67.80;;;;;;5158158;27;20025;-69
2022/06/15 04:33:18;;;;;;;6.22;2.20;;;23.10;67.60;;;;;;5158038;27;20019;-69
2022/06/15 04:35:45;;;;;;;5.28;2.40;;;23.10;67.20;;;;;;5158501;27;20034;-69
2022/06/15 04:38:12;;;;;;;3.33;2.15;;;23.10;67.30;;;;;;5158325;27;20031;-70
2022/06/15 04:40:39;;;;;;;3.83;2.20;;;23.10;67.30;;;;;;5157108;27;20055;-69
2022/06/15 04:43:06;;;;;;;5.45;1.80;;;23.10;68.00;;;;;;5158348;27;20030;-69
2022/06/15 04:45:33;;;;;;;7.20;2.10;;;23.10;67.90;;;;;;5159000;27;20023;-69
2022/06/15 04:48:00;;;;;;;5.97;2.20;;;23.20;67.70;;;;;;5158769;27;20034;-71
2022/06/15 04:50:26;;;;;;;6.60;2.33;;;23.20;67.80;;;;;;5157980;27;20043;-70
2022/06/15 04:52:52;;;;;;;5.43;1.90;;;23.30;67.90;;;;;;5158588;27;20018;-69
2022/06/15 04:55:21;;;;;;;3.03;2.17;;;23.30;68.10;;;;;;5158500;27;20493;-71
2022/06/15 04:57:50;;;;;;;5.13;2.22;;;23.20;67.90;;;;;;5158662;27;20067;-70
2022/06/15 05:00:18;;;;;;;3.65;2.20;;;23.40;68.00;;;;;;5157313;27;20073;-70
2022/06/15 05:02:45;;;;;;;5.47;2.10;;;24.30;66.50;;;;;;5157406;27;20039;-69
2022/06/15 05:05:12;;;;;;;3.70;2.00;;;25.60;63.90;;;;;;5157264;27;20034;-69
2022/06/15 05:07:38;;;;;;;6.07;2.15;;;27.20;61.00;;;;;;5157973;27;20047;-68
2022/06/15 05:10:05;;;;;;;5.07;2.10;;;28.40;58.80;;;;;;5157416;27;20038;-68
2022/06/15 05:12:32;;;;;;;6.57;2.10;;;28.90;57.50;;;;;;5157244;27;20050;-70
2022/06/15 05:14:58;;;;;;;4.07;1.90;;;29.20;56.40;;;;;;5157080;27;20023;-68
2022/06/15 05:17:25;;;;;;;7.80;1.90;;;29.80;55.40;;;;;;5157407;27;20031;-68
2022/06/15 05:19:51;;;;;;;4.38;2.08;;;30.60;54.40;;;;;;5155858;27;20023;-69
2022/06/15 05:22:17;;;;;;;5.15;1.77;;;31.60;53.00;;;;;;5157558;27;20075;-69
2022/06/15 05:24:43;;;;;;;4.13;1.80;;;32.50;50.90;;;;;;5157268;27;20046;-69
2022/06/15 05:27:10;;;;;;;5.93;1.75;;;33.60;49.50;;;;;;5157244;27;20066;-69
2022/06/15 05:29:36;;;;;;;;;;;34.00;48.90;;;;;;5157414;27;20474;-68
2022/06/15 05:32:07;;;;;;;11.90;2.10;;;34.00;49.30;;;;;;5156669;27;20346;-70
2022/06/15 05:34:35;;;;;;;5.03;1.80;;;34.20;48.90;;;;;;5157094;27;20095;-69
2022/06/15 05:37:01;;;;;;;4.80;2.00;;;34.10;49.00;;;;;;5156174;27;20018;-69
2022/06/15 05:39:27;;;;;;;3.67;1.80;;;33.80;48.80;;;;;;5156933;27;20031;-71
2022/06/15 05:41:53;;;;;;;;;;;33.50;48.40;;;;;;5157332;27;20058;-69
2022/06/15 05:44:36;;;;;;;5.53;1.80;;;33.50;49.10;;;;;;5156808;27;20000;-69
2022/06/15 05:47:04;;;;;;;7.28;2.00;;;34.20;48.60;;;;;;5156652;27;20079;-70
2022/06/15 05:49:31;;;;;;;5.05;1.60;;;34.50;48.80;;;;;;5156721;27;20019;-70
2022/06/15 05:51:57;;;;;;;5.70;2.08;;;35.10;48.20;;;;;;5155907;27;20106;-69
2022/06/15 05:54:23;;;;;;;9.43;1.73;;;35.40;47.60;;;;;;5156361;27;20010;-69
2022/06/15 05:56:49;;;;;;;6.63;2.03;;;35.50;47.20;;;;;;5155875;27;20359;-71
2022/06/15 05:59:16;;;;;;;6.53;1.77;;;36.70;46.60;;;;;;5156014;27;20035;-70
2022/06/15 06:01:42;;;;;;;4.00;1.70;;;37.20;44.70;;;;;;5156285;27;20030;-69
2022/06/15 06:04:13;;;;;;;4.18;1.83;;;36.60;45.20;;;;;;5155486;27;20038;-69
2022/06/15 06:06:39;;;;;;;6.80;2.10;;;37.70;44.60;;;;;;5156307;27;20015;-69
2022/06/15 06:09:05;;;;;;;2.92;1.50;;;38.90;43.40;;;;;;5155886;27;20399;-69
2022/06/15 06:11:31;;;;;;;5.25;1.67;;;39.30;43.00;;;;;;5156314;27;20033;-70
2022/06/15 06:13:57;;;;;;;3.38;1.50;;;39.60;42.20;;;;;;5155610;27;20027;-70
2022/06/15 06:16:23;;;;;;;6.93;1.70;;;40.00;41.60;;;;;;5155415;27;20066;-70
2022/06/15 06:18:51;;;;;;;6.07;1.55;;;41.20;41.00;;;;;;5155640;27;20034;-70
2022/06/15 06:21:18;;;;;;;6.35;1.63;;;41.50;40.00;;;;;;5155134;27;20109;-69
2022/06/15 06:23:44;;;;;;;8.18;1.52;;;42.40;39.60;;;;;;5155276;27;20034;-69
2022/06/15 06:26:20;;;;;;;4.38;1.50;;;43.90;38.70;;;;;;5155195;27;20492;-71
2022/06/15 06:28:46;;;;;;;3.33;1.10;;;45.10;37.60;;;;;;5155524;27;20023;-69
2022/06/15 06:31:12;;;;;;;4.82;1.20;;;45.30;37.20;;;;;;5154959;27;20026;-69
2022/06/15 06:33:38;;;;;;;6.70;1.10;;;45.90;36.80;;;;;;5155174;27;20023;-69
2022/06/15 06:36:11;;;;;;;5.57;1.30;;;45.90;36.20;;;;;;5155451;27;20030;-69
2022/06/15 06:38:38;;;;;;;3.50;1.38;;;46.30;35.90;;;;;;5155181;27;20038;-70
2022/06/15 06:41:05;;;;;;;2.60;1.23;;;46.80;36.40;;;;;;5155245;27;20030;-69
2022/06/15 06:43:31;;;;;;;9.50;1.40;;;46.40;36.50;;;;;;5155589;27;20046;-70
2022/06/15 06:45:57;;;;;;;11.10;2.03;;;46.60;37.20;;;;;;5155297;27;20102;-70
2022/06/15 06:48:23;;;;;;;7.07;1.73;;;46.50;37.10;;;;;;5154719;27;20027;-70
2022/06/15 06:50:51;;;;;;;6.53;1.40;;;47.00;35.30;;;;;;5154404;27;20057;-70
2022/06/15 06:53:18;;;;;;;8.05;1.77;;;46.40;36.50;;;;;;5154985;27;20443;-70
2022/06/15 06:55:44;;;;;;;9.15;1.52;;;46.70;36.20;;;;;;5155159;27;20087;-70
2022/06/15 06:58:10;;;;;;;4.75;1.38;;;45.80;36.50;;;;;;5155100;27;20105;-70
2022/06/15 07:00:37;;;;;;;8.70;1.90;;;46.30;36.90;;;;;;5155066;27;20061;-70
2022/06/15 07:03:05;;;;;;;7.72;1.52;;;46.90;36.20;;;;;;5145831;27;20119;-68
2022/06/15 07:05:36;;;;;;;9.52;1.67;;;47.00;36.30;;;;;;5140719;27;20035;-68
2022/06/15 07:08:02;;;;;;;12.00;1.80;;;47.40;36.60;;;;;;5145037;27;20098;-68
2022/06/15 07:10:29;;;;;;;4.78;1.60;;;47.70;36.70;;;;;;5134170;27;20509;-68
2022/06/15 07:12:55;;;;;;;10.57;1.75;;;46.70;35.90;;;;;;5134093;27;20475;-68
2022/06/15 07:15:21;;;;;;;5.95;1.70;;;46.30;36.90;;;;;;5134060;27;20034;-69
2022/06/15 07:17:47;;;;;;;6.13;1.65;;;45.00;37.70;;;;;;5133672;27;20031;-68
2022/06/15 07:20:13;;;;;;;9.27;1.95;;;44.30;38.10;;;;;;5134034;27;20029;-68
2022/06/15 07:22:39;;;;;;;9.70;2.10;;;43.60;39.60;;;;;;5133492;27;20057;-68
2022/06/15 07:25:07;;;;;;;11.10;2.20;;;42.90;41.40;;;;;;5146485;27;20038;-68
2022/06/15 07:27:37;;;;;;;19.02;2.78;;;41.30;40.40;;;;;;5133581;27;20037;-67
2022/06/15 07:30:06;;;;;;;8.60;2.47;;;40.00;42.70;;;;;;5146793;27;20019;-70
2022/06/15 07:32:33;;;;;;;12.50;2.35;;;39.60;43.50;;;;;;5154308;27;20130;-70
2022/06/15 07:34:59;;;;;;;13.38;2.58;;;39.40;43.80;;;;;;5147897;27;20481;-68
2022/06/15 07:37:25;;;;;;;14.75;2.42;;;39.30;43.90;;;;;;5133236;27;20100;-69
2022/06/15 07:39:51;;;;;;;9.38;2.30;;;39.20;43.60;;;;;;5133929;27;20424;-70
2022/06/15 07:42:18;;;;;;;9.32;1.88;;;39.00;44.20;;;;;;5134277;27;20034;-70
2022/06/15 07:44:44;;;;;;;11.63;2.28;;;38.50;44.00;;;;;;5133300;27;20019;-69
2022/06/15 07:49:55;;;;;;;8.60;2.28;;;37.90;45.10;;;;;;5132917;27;20117;-68
2022/06/15 07:52:25;;;;;;;8.90;2.10;;;37.90;45.10;;;;;;5131672;27;20027;-69
2022/06/15 07:54:51;;;;;;;6.65;1.73;;;37.90;44.60;;;;;;5132691;27;20470;-69
2022/06/15 07:57:17;;;;;;;6.20;1.67;;;37.40;44.10;;;;;;5132762;27;20034;-69
2022/06/15 07:59:43;;;;;;;7.60;2.35;;;37.00;44.60;;;;;;5134674;27;20027;-69
2022/06/15 08:02:09;;;;;;;6.38;2.17;;;36.10;45.40;;;;;;5138370;27;20035;-70
2022/06/15 08:04:35;;;;;;;8.95;2.05;;;36.20;45.90;;;;;;5138261;27;20047;-70
2022/06/15 08:07:02;;;;;;;9.40;1.80;;;36.30;45.20;;;;;;5139987;27;20023;-69
2022/06/15 08:09:28;;;;;;;12.00;2.20;;;35.80;45.80;;;;;;5140047;27;20023;-68
2022/06/15 08:12:12;;;;;;;5.32;1.98;;;36.00;46.20;;;;;;5139469;27;20034;-68
2022/06/15 08:14:51;;;;;;;4.10;1.83;;;35.70;46.10;;;;;;5140039;27;20012;-68
2022/06/15 08:17:30;;;;;;;7.97;2.60;;;35.60;46.60;;;;;;5139914;27;20023;-68
2022/06/15 08:20:05;;;;;;;8.55;1.70;;;35.80;46.20;;;;;;5140551;27;20114;-69
2022/06/15 08:22:34;;;;;;;19.20;2.88;;;35.60;45.90;;;;;;5140216;27;20054;-69
2022/06/15 08:25:01;;;;;;;12.57;2.33;;;35.30;46.20;;;;;;5140188;27;20408;-70
2022/06/15 08:27:28;;;;;;;12.07;1.85;;;35.10;45.90;;;;;;5140107;27;20058;-69
2022/06/15 08:29:54;;;;;;;11.73;2.45;;;35.10;46.30;;;;;;5138470;27;20019;-69
2022/06/15 08:32:21;;;;;;;7.03;2.00;;;35.10;46.60;;;;;;5139660;27;20043;-70
2022/06/15 08:34:49;;;;;;;7.82;2.10;;;35.30;46.60;;;;;;5140196;27;20031;-69
2022/06/15 08:37:17;;;;;;;7.80;1.80;;;35.30;45.50;;;;;;5139883;27;20034;-68
2022/06/15 08:39:44;;;;;;;4.43;1.80;;;35.00;45.90;;;;;;5139647;27;20075;-70
2022/06/15 08:42:23;;;;;;;6.82;1.80;;;35.10;46.40;;;;;;5139549;27;20095;-69
2022/06/15 08:45:21;;;;;;;4.30;1.58;;;35.20;45.90;;;;;;5139968;27;20386;-69
2022/06/15 08:47:56;;;;;;;3.47;1.70;;;34.80;46.00;;;;;;5139592;27;20039;-69
2022/06/15 08:50:53;;;;;;;6.63;1.67;;;34.50;46.10;;;;;;5140838;27;20125;-69
2022/06/15 08:53:53;;;;;;;5.32;1.70;;;34.40;46.50;;;;;;5139697;27;20027;-70
2022/06/15 08:56:29;;;;;;;5.20;1.67;;;34.30;46.50;;;;;;5121161;27;20027;-68
2022/06/15 08:59:10;;;;;;;8.43;2.20;;;34.10;47.20;;;;;;5139474;27;20039;-68
2022/06/15 09:01:38;;;;;;;8.05;1.73;;;34.30;47.20;;;;;;5139502;27;20098;-68
2022/06/15 09:04:32;;;;;;;8.52;1.80;;;34.60;46.80;;;;;;5139101;27;20115;-69
2022/06/15 09:07:22;;;;;;;8.10;1.90;;;34.80;46.10;;;;;;5140043;27;20019;-71
2022/06/15 09:09:58;;;;;;;7.00;2.30;;;34.10;46.50;;;;;;5137907;27;20027;-69
2022/06/15 09:13:16;;;;;;;6.80;1.70;;;34.00;47.40;;;;;;5136563;27;20118;-67
2022/06/15 09:15:51;;;;;;;6.35;1.73;;;34.00;47.30;;;;;;5052401;28;20497;-68
2022/06/15 09:18:29;;;;;;;4.75;1.80;;;34.20;47.60;;;;;;5124106;27;20050;-68
2022/06/15 09:21:04;;;;;;;27.35;2.63;;;33.90;47.40;;;;;;5134393;27;20023;-68
2022/06/15 09:23:44;;;;;;;6.45;1.90;;;33.90;47.70;;;;;;5136110;27;20023;-68
2022/06/15 09:26:23;;;;;;;6.63;1.90;;;33.90;47.70;;;;;;5136168;27;20019;-69
2022/06/15 09:28:52;;;;;;;8.00;1.75;;;33.80;49.30;;;;;;5135746;27;20034;-69
2022/06/15 09:31:27;;;;;;;7.72;2.00;;;33.80;48.60;;;;;;5135916;27;20019;-68
2022/06/15 09:34:02;;;;;;;8.90;2.10;;;33.80;48.20;;;;;;5134166;27;20019;-69
2022/06/15 09:36:34;;;;;;;5.90;2.00;;;33.90;48.00;;;;;;5135457;27;20034;-71
2022/06/15 09:39:00;;;;;;;7.70;2.03;;;33.60;47.70;;;;;;5135564;27;20371;-69
2022/06/15 09:42:08;;;;;;;4.47;1.80;;;33.20;48.30;;;;;;5134097;27;20122;-68
2022/06/15 09:44:46;;;;;;;5.68;1.70;;;33.00;48.40;;;;;;5035340;28;20477;-69
2022/06/15 09:47:23;;;;;;;4.60;1.90;;;32.60;48.50;;;;;;5052193;28;20402;-68
2022/06/15 09:49:57;;;;;;;5.15;1.80;;;32.70;49.30;;;;;;5052594;28;20032;-70
2022/06/15 09:52:35;;;;;;;3.80;1.70;;;32.70;49.40;;;;;;5052240;28;20025;-71
2022/06/15 09:55:11;;;;;;;5.60;2.63;;;32.50;49.50;;;;;;5052085;28;20029;-69
2022/06/15 09:57:39;;;;;;;6.25;2.10;;;32.60;49.80;;;;;;5052228;28;20508;-69
2022/06/15 10:00:09;;;;;;;7.05;2.15;;;32.70;49.30;;;;;;5052262;28;20132;-69
2022/06/15 10:02:38;;;;;;;9.10;2.00;;;32.40;49.90;;;;;;5052114;28;20124;-70
2022/06/15 10:05:11;;;;;;;5.13;2.00;;;32.40;49.60;;;;;;5052272;28;20044;-70
2022/06/15 10:07:44;;;;;;;7.70;2.40;;;32.30;49.50;;;;;;5051937;28;20043;-69
2022/06/15 10:10:26;;;;;;;9.45;2.22;;;32.40;50.00;;;;;;5051855;28;20052;-70
2022/06/15 10:13:02;;;;;;;4.13;2.00;;;32.20;49.30;;;;;;5034688;28;20029;-69
2022/06/15 10:15:28;;;;;;;6.15;2.03;;;32.20;49.10;;;;;;5099544;27;20080;-69
2022/06/15 10:17:59;;;;;;;3.50;2.00;;;32.30;49.20;;;;;;5135271;27;20035;-69
2022/06/15 10:20:35;;;;;;;3.95;1.80;;;32.40;48.90;;;;;;5135478;27;20079;-69
2022/06/15 10:23:15;;;;;;;3.60;1.80;;;32.40;48.70;;;;;;5134129;27;20058;-69
2022/06/15 10:25:50;;;;;;;5.15;1.88;;;32.40;49.20;;;;;;5135203;27;20437;-69
2022/06/15 10:28:31;;;;;;;5.15;2.08;;;32.30;49.00;;;;;;5116843;27;20064;-69
2022/06/15 10:31:00;;;;;;;4.75;1.75;;;32.30;48.70;;;;;;5135316;27;20023;-69
2022/06/15 10:33:37;;;;;;;5.18;1.83;;;32.40;49.40;;;;;;5135288;27;20019;-68
2022/06/15 10:36:15;;;;;;;4.53;1.55;;;32.40;49.20;;;;;;5135179;27;20475;-69
2022/06/15 10:38:42;;;;;;;16.58;1.88;;;32.10;50.20;;;;;;5135384;27;20497;-69
2022/06/15 10:44:15;;;;;;;4.63;1.60;;;32.00;49.20;;;;;;5051401;28;20405;-68
2022/06/15 10:47:01;;;;;;;8.45;1.77;;;32.20;48.40;;;;;;5033990;28;20033;-69
2022/06/15 10:49:31;;;;;;;9.68;1.67;;;32.50;48.80;;;;;;5050282;28;20044;-69
2022/06/15 10:51:58;;;;;;;3.65;1.48;;;32.20;48.90;;;;;;5050149;28;20049;-69
2022/06/15 11:03:22;;;;;;;6.50;1.35;;;32.40;49.40;;;;;;5050356;28;20511;-69
2022/06/15 11:05:50;;;;;;;5.13;1.40;;;32.20;48.60;;;;;;5050664;28;20124;-69
2022/06/15 11:08:29;;;;;;;4.90;1.40;;;32.00;49.20;;;;;;5050329;28;20079;-69
2022/06/15 11:11:34;;;;;;;4.57;1.30;;;32.20;48.60;;;;;;5050888;28;20588;-69
2022/06/15 11:14:18;;;;;;;3.20;1.00;;;32.40;47.60;;;;;;4972111;28;20043;-69
2022/06/15 11:19:29;;;;;;;2.90;1.20;;;32.20;48.70;;;;;;5051065;28;20528;-69
2022/06/15 11:22:02;;;;;;;2.35;1.20;;;32.00;49.30;;;;;;5050855;28;20033;-69
2022/06/15 11:25:01;;;;;;;2.50;1.00;;;31.90;49.80;;;;;;5051240;28;20033;-68
2022/06/15 11:28:02;;;;;;;7.10;1.20;;;32.00;48.10;;;;;;5051039;28;20039;-69
2022/06/15 11:30:36;;;;;;;1.98;0.95;;;32.00;49.20;;;;;;4972216;28;20410;-69
2022/06/15 11:33:22;;;;;;;3.92;1.10;;;32.00;49.20;;;;;;4972055;28;20132;-69
2022/06/15 11:35:57;;;;;;;4.13;1.10;;;32.10;49.30;;;;;;4971426;28;20027;-70
2022/06/15 11:38:26;;;;;;;5.07;1.00;;;31.90;49.70;;;;;;4972016;28;20051;-69
2022/06/15 11:41:17;;;;;;;4.25;1.00;;;31.80;50.20;;;;;;4971954;28;20062;-69
2022/06/15 11:43:46;;;;;;;4.45;1.08;;;31.80;50.80;;;;;;4979033;28;20033;-70
2022/06/15 11:46:56;;;;;;;5.60;1.50;;;31.80;50.70;;;;;;5050382;28;20498;-68
2022/06/15 11:49:37;;;;;;;2.10;1.00;;;31.60;50.10;;;;;;5027961;28;20532;-69
2022/06/15 11:52:38;;;;;;;3.28;1.30;;;31.80;51.90;;;;;;5050464;28;20033;-69
2022/06/15 11:55:22;;;;;;;2.85;1.00;;;32.00;53.10;;;;;;5050459;28;20033;-69
2022/06/15 11:58:02;;;;;;;5.70;1.48;;;32.10;53.60;;;;;;5050300;28;20055;-69
2022/06/15 12:00:38;;;;;;;3.25;1.00;;;32.20;53.30;;;;;;5050128;28;20072;-70
2022/06/15 12:03:07;;;;;;;5.35;1.35;;;32.10;54.00;;;;;;5049714;28;20078;-69
2022/06/15 12:05:40;;;;;;;5.18;1.08;;;32.10;54.00;;;;;;5050439;28;20472;-69
2022/06/15 12:08:21;;;;;;;4.38;1.20;;;32.00;53.90;;;;;;5133462;27;20079;-69
2022/06/15 12:10:58;;;;;;;3.80;1.10;;;32.00;54.40;;;;;;5133754;27;20015;-69
2022/06/15 12:13:33;;;;;;;4.93;1.13;;;31.90;54.70;;;;;;5132208;28;20023;-69
2022/06/15 12:16:15;;;;;;;3.33;1.08;;;31.90;54.90;;;;;;5133033;28;20019;-69
2022/06/15 12:18:56;;;;;;;2.60;0.90;;;31.80;54.50;;;;;;5133167;27;20092;-69
2022/06/15 12:21:45;;;;;;;4.03;1.15;;;32.00;55.10;;;;;;5133563;27;20031;-68
2022/06/15 12:24:36;;;;;;;3.42;0.98;;;32.20;54.70;;;;;;5134038;27;20015;-70
2022/06/15 12:27:04;;;;;;;8.70;1.50;;;32.10;54.20;;;;;;5134218;27;20027;-69
2022/06/15 12:30:05;;;;;;;5.57;0.90;;;31.80;54.30;;;;;;5133594;27;20034;-69
2022/06/15 12:33:04;;;;;;;5.28;1.27;;;32.00;53.40;;;;;;5050441;28;20059;-69
2022/06/15 12:35:50;;;;;;;3.20;1.20;;;31.90;55.00;;;;;;4971747;28;20031;-69
2022/06/15 12:38:33;;;;;;;4.03;1.30;;;31.80;54.40;;;;;;4972009;28;20047;-69
2022/06/15 12:44:09;;;;;;;3.78;1.00;;;31.90;55.50;;;;;;4972197;28;20069;-69
2022/06/15 12:46:36;;;;;;;3.05;1.10;;;32.00;55.10;;;;;;4972765;28;20119;-69
2022/06/15 12:49:26;;;;;;;6.18;1.30;;;32.10;54.60;;;;;;4975336;28;20034;-69
2022/06/15 12:52:11;;;;;;;8.52;1.60;;;32.00;55.40;;;;;;4975219;28;20487;-69
2022/06/15 12:55:03;;;;;;;4.45;1.27;;;31.90;55.70;;;;;;4958244;28;20085;-69
2022/06/15 12:58:05;;;;;;;4.95;1.15;;;31.90;56.90;;;;;;4975104;28;20067;-69
2022/06/15 13:00:47;;;;;;;4.20;0.85;;;31.90;56.00;;;;;;4974944;28;20534;-69
2022/06/15 13:03:34;;;;;;;3.13;1.05;;;32.00;58.50;;;;;;4974395;28;20091;-69
2022/06/15 13:06:35;;;;;;;5.28;1.00;;;31.70;58.50;;;;;;4975038;28;20169;-69
2022/06/15 13:09:14;;;;;;;4.07;1.20;;;31.60;60.30;;;;;;5045110;28;20433;-69
2022/06/15 13:12:05;;;;;;;2.55;0.90;;;31.80;60.40;;;;;;5114944;27;20518;-69
2022/06/15 13:14:36;;;;;;;4.43;0.80;;;31.80;60.50;;;;;;5137067;27;20463;-69
2022/06/15 13:17:25;;;;;;;3.80;1.10;;;31.90;60.40;;;;;;5136638;27;20130;-69
2022/06/15 13:20:01;;;;;;;2.45;0.90;;;32.00;58.50;;;;;;5136902;27;20489;-69
2022/06/15 13:22:32;;;;;;;4.75;1.40;;;31.90;59.80;;;;;;5136697;27;20484;-69
2022/06/15 13:25:04;;;;;;;4.10;1.20;;;31.70;59.00;;;;;;5137136;27;20037;-69
2022/06/15 13:27:45;;;;;;;2.85;1.05;;;31.90;59.10;;;;;;5136489;27;20377;-69
2022/06/15 13:30:50;;;;;;;2.60;1.17;;;31.80;58.70;;;;;;5136895;27;20031;-69
2022/06/15 13:33:18;;;;;;;2.83;0.95;;;32.00;59.90;;;;;;5136310;27;20035;-69
2022/06/15 13:35:47;;;;;;;3.83;1.00;;;32.20;61.50;;;;;;5136344;27;20031;-69
2022/06/15 13:38:32;;;;;;;3.67;1.10;;;32.10;59.40;;;;;;5136134;27;20085;-69
2022/06/15 13:40:59;;;;;;;6.38;1.10;;;32.30;60.60;;;;;;5136194;27;20084;-69